Dudley, United Kingdom
Current Conditions -  °F | °C
As of 1:20 AM on Tuesday 25 Nov 2014 (Local Time) from EGBB Reporting Station
Haze Haze  
Wind Chill: 30°   Ceiling: Unl
Heat Index: 30°   Visibility: 3mi
Dew Point: 30°   Wind: 2mph
Humidity: 100%   Direction: 150°SSE
Pressure: 30.3"   Gusts: NA
Location:  52.51°N, 2.09°W
Report Text: EGBB 250120Z AUTO 15002KT 5000 BR NCD M01/M01 Q1026
Loading
Personal Weather Stations






























Interactive Weather Map New forecast layout! Learn more

10-Day Weather Forecast

Advertisements
Track Severe Weather on mobile